Time;durP1;ratioP1;P1;durP2;ratioP2;P2;SDS_P1;SDS_P2;PMS_P1;PMS_P2;Temp;Humidity;BMP_temperature;BMP_pressure;BME280_temperature;BME280_humidity;BME280_pressure;Samples;Min_cycle;Max_cycle;Signal;HPM_P1;HPM_P2
2020/01/06 00:00:50;;;;;;;21.45;14.1;;;;;;;-2.86;95.77148;96689;;;;
2020/01/06 00:02:36;;;;;;;20.2;13.5;;;;;;;-2.87;95.81836;96667.56;;;;
2020/01/06 00:03:37;;;;;;;20.2;13.5;;;;;;;-2.87;95.81836;96667.56;;;;
2020/01/06 00:04:38;;;;;;;20.2;13.5;;;;;;;-2.87;95.81836;96667.56;;;;
2020/01/06 00:05:39;;;;;;;20.2;13.5;;;;;;;-2.87;95.81836;96667.56;;;;
2020/01/06 00:06:39;;;;;;;20.2;13.5;;;;;;;-2.87;95.81836;96667.56;;;;
2020/01/06 00:07:40;;;;;;;20.2;13.5;;;;;;;-2.87;95.81836;96667.56;;;;
2020/01/06 00:08:40;;;;;;;20.2;13.5;;;;;;;-2.87;95.81836;96667.56;;;;
2020/01/06 00:09:40;;;;;;;20.2;13.5;;;;;;;-2.87;95.81836;96667.56;;;;
2020/01/06 00:10:41;;;;;;;20.2;13.5;;;;;;;-2.87;95.81836;96667.56;;;;
2020/01/06 00:11:41;;;;;;;20.2;13.5;;;;;;;-2.87;95.81836;96667.56;;;;
2020/01/06 00:12:42;;;;;;;20.2;13.5;;;;;;;-2.87;95.81836;96667.56;;;;
2020/01/06 00:13:42;;;;;;;20.2;13.5;;;;;;;-2.87;95.81836;96667.56;;;;
2020/01/06 00:14:43;;;;;;;20.2;13.5;;;;;;;-2.87;95.81836;96667.56;;;;
2020/01/06 00:15:44;;;;;;;20.2;13.5;;;;;;;-2.87;95.81836;96667.56;;;;
2020/01/06 00:16:45;;;;;;;20.2;13.5;;;;;;;-2.87;95.81836;96667.56;;;;
2020/01/06 00:17:45;;;;;;;20.2;13.5;;;;;;;-2.87;95.81836;96667.56;;;;
2020/01/06 00:18:46;;;;;;;20.2;13.5;;;;;;;-2.87;95.81836;96667.56;;;;
2020/01/06 00:19:46;;;;;;;20.2;13.5;;;;;;;-2.87;95.81836;96667.56;;;;
2020/01/06 00:20:46;;;;;;;20.2;13.5;;;;;;;-2.87;95.81836;96667.56;;;;
2020/01/06 00:21:47;;;;;;;20.2;13.5;;;;;;;-2.87;95.81836;96667.56;;;;
2020/01/06 00:22:47;;;;;;;20.2;13.5;;;;;;;-2.87;95.81836;96667.56;;;;
2020/01/06 00:23:48;;;;;;;20.2;13.5;;;;;;;-2.87;95.81836;96667.56;;;;
2020/01/06 00:24:48;;;;;;;22.3;13.15;;;;;;;-2.86;95.6582;96644.08;;;;
2020/01/06 00:25:49;;;;;;;22.3;13.15;;;;;;;-2.86;95.6582;96644.08;;;;
2020/01/06 00:26:49;;;;;;;22.3;13.15;;;;;;;-2.86;95.6582;96644.08;;;;
2020/01/06 00:27:50;;;;;;;22.3;13.15;;;;;;;-2.86;95.6582;96644.08;;;;
2020/01/06 00:28:50;;;;;;;22.3;13.15;;;;;;;-2.86;95.6582;96644.08;;;;
2020/01/06 00:29:51;;;;;;;22.3;13.15;;;;;;;-2.86;95.6582;96644.08;;;;
2020/01/06 00:30:51;;;;;;;22.3;13.15;;;;;;;-2.86;95.6582;96644.08;;;;
2020/01/06 00:31:52;;;;;;;22.3;13.15;;;;;;;-2.86;95.6582;96644.08;;;;
2020/01/06 00:32:52;;;;;;;22.3;13.15;;;;;;;-2.86;95.6582;96644.08;;;;
2020/01/06 00:33:53;;;;;;;22.3;13.15;;;;;;;-2.86;95.6582;96644.08;;;;
2020/01/06 00:34:53;;;;;;;22.05;12.95;;;;;;;-2.89;95.90723;96645.7;;;;
2020/01/06 00:35:54;;;;;;;22.05;12.95;;;;;;;-2.89;95.90723;96645.7;;;;
2020/01/06 00:36:54;;;;;;;22.05;12.95;;;;;;;-2.89;95.90723;96645.7;;;;
2020/01/06 00:37:55;;;;;;;22.05;12.95;;;;;;;-2.89;95.90723;96645.7;;;;
2020/01/06 00:39:01;;;;;;;22.05;12.95;;;;;;;-2.89;95.90723;96645.7;;;;
2020/01/06 00:40:05;;;;;;;22.05;12.95;;;;;;;-2.89;95.90723;96645.7;;;;
2020/01/06 00:41:05;;;;;;;22.05;12.95;;;;;;;-2.89;95.90723;96645.7;;;;
2020/01/06 00:42:05;;;;;;;22.05;12.95;;;;;;;-2.89;95.90723;96645.7;;;;
2020/01/06 00:43:06;;;;;;;22.05;12.95;;;;;;;-2.89;95.90723;96645.7;;;;
2020/01/06 00:44:22;;;;;;;22.05;12.95;;;;;;;-2.89;95.90723;96645.7;;;;
2020/01/06 00:45:22;;;;;;;19.25;11.35;;;;;;;-2.92;95.99512;96636.66;;;;
2020/01/06 00:46:23;;;;;;;19.25;11.35;;;;;;;-2.92;95.99512;96636.66;;;;
2020/01/06 00:47:23;;;;;;;19.25;11.35;;;;;;;-2.92;95.99512;96636.66;;;;
2020/01/06 00:48:24;;;;;;;19.25;11.35;;;;;;;-2.92;95.99512;96636.66;;;;
2020/01/06 00:49:24;;;;;;;19.25;11.35;;;;;;;-2.92;95.99512;96636.66;;;;
2020/01/06 00:50:25;;;;;;;19.25;11.35;;;;;;;-2.92;95.99512;96636.66;;;;
2020/01/06 00:51:26;;;;;;;19.25;11.35;;;;;;;-2.92;95.99512;96636.66;;;;
2020/01/06 00:52:26;;;;;;;19.25;11.35;;;;;;;-2.92;95.99512;96636.66;;;;
2020/01/06 00:53:27;;;;;;;19.25;11.35;;;;;;;-2.92;95.99512;96636.66;;;;
2020/01/06 00:54:27;;;;;;;19.25;11.35;;;;;;;-2.92;95.99512;96636.66;;;;
2020/01/06 00:55:31;;;;;;;19.25;11.35;;;;;;;-2.92;95.99512;96636.66;;;;
2020/01/06 00:56:31;;;;;;;20.9;12.75;;;;;;;-2.98;95.92676;96623.97;;;;
2020/01/06 00:57:32;;;;;;;20.9;12.75;;;;;;;-2.98;95.92676;96623.97;;;;
2020/01/06 00:58:32;;;;;;;20.9;12.75;;;;;;;-2.98;95.92676;96623.97;;;;
2020/01/06 00:59:32;;;;;;;20.9;12.75;;;;;;;-2.98;95.92676;96623.97;;;;
2020/01/06 01:00:33;;;;;;;20.9;12.75;;;;;;;-2.98;95.92676;96623.97;;;;
2020/01/06 01:02:06;;;;;;;20.9;12.75;;;;;;;-2.98;95.92676;96623.97;;;;
2020/01/06 01:03:07;;;;;;;20.9;12.75;;;;;;;-2.98;95.92676;96623.97;;;;
2020/01/06 01:04:07;;;;;;;20.9;12.75;;;;;;;-2.98;95.92676;96623.97;;;;
2020/01/06 01:05:08;;;;;;;20.9;12.75;;;;;;;-2.98;95.92676;96623.97;;;;
2020/01/06 01:06:10;;;;;;;20.9;12.75;;;;;;;-2.98;95.92676;96623.97;;;;
2020/01/06 01:07:10;;;;;;;18.8;11.7;;;;;;;-3.06;96.01465;96614.03;;;;
2020/01/06 01:08:12;;;;;;;18.8;11.7;;;;;;;-3.06;96.01465;96614.03;;;;
2020/01/06 01:09:12;;;;;;;18.8;11.7;;;;;;;-3.06;96.01465;96614.03;;;;
2020/01/06 01:10:39;;;;;;;18.8;11.7;;;;;;;-3.06;96.01465;96614.03;;;;
2020/01/06 01:11:40;;;;;;;18.8;11.7;;;;;;;-3.06;96.01465;96614.03;;;;
2020/01/06 01:12:40;;;;;;;18.8;11.7;;;;;;;-3.06;96.01465;96614.03;;;;
2020/01/06 01:13:40;;;;;;;18.8;11.7;;;;;;;-3.06;96.01465;96614.03;;;;
2020/01/06 01:14:41;;;;;;;18.8;11.7;;;;;;;-3.06;96.01465;96614.03;;;;
2020/01/06 01:15:42;;;;;;;18.8;11.7;;;;;;;-3.06;96.01465;96614.03;;;;
2020/01/06 01:16:56;;;;;;;18.8;11.7;;;;;;;-3.06;96.01465;96614.03;;;;
2020/01/06 01:17:56;;;;;;;20.85;12.45;;;;;;;-3.03;95.99902;96616.89;;;;
2020/01/06 01:18:57;;;;;;;20.85;12.45;;;;;;;-3.03;95.99902;96616.89;;;;
2020/01/06 01:19:57;;;;;;;20.85;12.45;;;;;;;-3.03;95.99902;96616.89;;;;
2020/01/06 01:20:58;;;;;;;20.85;12.45;;;;;;;-3.03;95.99902;96616.89;;;;
2020/01/06 01:21:58;;;;;;;20.85;12.45;;;;;;;-3.03;95.99902;96616.89;;;;
2020/01/06 01:22:59;;;;;;;20.85;12.45;;;;;;;-3.03;95.99902;96616.89;;;;
2020/01/06 01:23:59;;;;;;;20.85;12.45;;;;;;;-3.03;95.99902;96616.89;;;;
2020/01/06 01:25:00;;;;;;;20.85;12.45;;;;;;;-3.03;95.99902;96616.89;;;;
2020/01/06 01:26:01;;;;;;;20.85;12.45;;;;;;;-3.03;95.99902;96616.89;;;;
2020/01/06 01:27:01;;;;;;;20.85;12.45;;;;;;;-3.03;95.99902;96616.89;;;;
2020/01/06 01:28:02;;;;;;;19.65;12.3;;;;;;;-2.97;95.87988;96616.85;;;;
2020/01/06 01:29:02;;;;;;;19.65;12.3;;;;;;;-2.97;95.87988;96616.85;;;;
2020/01/06 01:30:03;;;;;;;19.65;12.3;;;;;;;-2.97;95.87988;96616.85;;;;
2020/01/06 01:31:13;;;;;;;19.65;12.3;;;;;;;-2.97;95.87988;96616.85;;;;
2020/01/06 01:32:13;;;;;;;19.65;12.3;;;;;;;-2.97;95.87988;96616.85;;;;
2020/01/06 01:33:14;;;;;;;19.65;12.3;;;;;;;-2.97;95.87988;96616.85;;;;
2020/01/06 01:34:14;;;;;;;19.65;12.3;;;;;;;-2.97;95.87988;96616.85;;;;
2020/01/06 01:35:15;;;;;;;19.65;12.3;;;;;;;-2.97;95.87988;96616.85;;;;
2020/01/06 01:36:15;;;;;;;19.65;12.3;;;;;;;-2.97;95.87988;96616.85;;;;
2020/01/06 01:37:16;;;;;;;19.65;12.3;;;;;;;-2.97;95.87988;96616.85;;;;
2020/01/06 01:38:16;;;;;;;19.65;12.3;;;;;;;-2.97;95.87988;96616.85;;;;
2020/01/06 01:39:17;;;;;;;22.3;13;;;;;;;-2.89;95.90723;96598.56;;;;
2020/01/06 01:40:32;;;;;;;22.3;13;;;;;;;-2.89;95.90723;96598.56;;;;
2020/01/06 01:41:33;;;;;;;22.3;13;;;;;;;-2.89;95.90723;96598.56;;;;
2020/01/06 01:42:33;;;;;;;22.3;13;;;;;;;-2.89;95.90723;96598.56;;;;
2020/01/06 01:43:34;;;;;;;22.3;13;;;;;;;-2.89;95.90723;96598.56;;;;
2020/01/06 01:44:34;;;;;;;22.3;13;;;;;;;-2.89;95.90723;96598.56;;;;
2020/01/06 01:45:35;;;;;;;22.3;13;;;;;;;-2.89;95.90723;96598.56;;;;
2020/01/06 01:46:35;;;;;;;22.3;13;;;;;;;-2.89;95.90723;96598.56;;;;
2020/01/06 01:47:36;;;;;;;22.3;13;;;;;;;-2.89;95.90723;96598.56;;;;
2020/01/06 01:48:36;;;;;;;22.3;13;;;;;;;-2.89;95.90723;96598.56;;;;
2020/01/06 01:49:37;;;;;;;25.35;15.1;;;;;;;-2.77;96.19434;96583.89;;;;
2020/01/06 01:50:37;;;;;;;25.35;15.1;;;;;;;-2.77;96.19434;96583.89;;;;
2020/01/06 01:51:38;;;;;;;25.35;15.1;;;;;;;-2.77;96.19434;96583.89;;;;
2020/01/06 01:52:38;;;;;;;25.35;15.1;;;;;;;-2.77;96.19434;96583.89;;;;
2020/01/06 01:53:39;;;;;;;25.35;15.1;;;;;;;-2.77;96.19434;96583.89;;;;
2020/01/06 01:54:39;;;;;;;25.35;15.1;;;;;;;-2.77;96.19434;96583.89;;;;
2020/01/06 01:55:40;;;;;;;25.35;15.1;;;;;;;-2.77;96.19434;96583.89;;;;
2020/01/06 01:56:40;;;;;;;25.35;15.1;;;;;;;-2.77;96.19434;96583.89;;;;
2020/01/06 01:57:41;;;;;;;25.35;15.1;;;;;;;-2.77;96.19434;96583.89;;;;
2020/01/06 01:58:41;;;;;;;25.35;15.1;;;;;;;-2.77;96.19434;96583.89;;;;
2020/01/06 01:59:42;;;;;;;22.6;13.25;;;;;;;-2.61;96.40137;96574.74;;;;
2020/01/06 02:00:42;;;;;;;22.6;13.25;;;;;;;-2.61;96.40137;96574.74;;;;
2020/01/06 02:01:47;;;;;;;22.6;13.25;;;;;;;-2.61;96.40137;96574.74;;;;
2020/01/06 02:02:47;;;;;;;22.6;13.25;;;;;;;-2.61;96.40137;96574.74;;;;
2020/01/06 02:03:48;;;;;;;22.6;13.25;;;;;;;-2.61;96.40137;96574.74;;;;
2020/01/06 02:04:48;;;;;;;22.6;13.25;;;;;;;-2.61;96.40137;96574.74;;;;
2020/01/06 02:05:48;;;;;;;22.6;13.25;;;;;;;-2.61;96.40137;96574.74;;;;
2020/01/06 02:07:30;;;;;;;22.6;13.25;;;;;;;-2.61;96.40137;96574.74;;;;
2020/01/06 02:08:31;;;;;;;22.6;13.25;;;;;;;-2.61;96.40137;96574.74;;;;
2020/01/06 02:09:31;;;;;;;22.6;13.25;;;;;;;-2.61;96.40137;96574.74;;;;
2020/01/06 02:10:32;;;;;;;21.6;13.15;;;;;;;-2.49;96.49121;96567.13;;;;
2020/01/06 02:11:32;;;;;;;21.6;13.15;;;;;;;-2.49;96.49121;96567.13;;;;
2020/01/06 02:12:33;;;;;;;21.6;13.15;;;;;;;-2.49;96.49121;96567.13;;;;
2020/01/06 02:13:33;;;;;;;21.6;13.15;;;;;;;-2.49;96.49121;96567.13;;;;
2020/01/06 02:14:34;;;;;;;21.6;13.15;;;;;;;-2.49;96.49121;96567.13;;;;
2020/01/06 02:15:34;;;;;;;21.6;13.15;;;;;;;-2.49;96.49121;96567.13;;;;
2020/01/06 02:16:35;;;;;;;21.6;13.15;;;;;;;-2.49;96.49121;96567.13;;;;
2020/01/06 02:17:35;;;;;;;21.6;13.15;;;;;;;-2.49;96.49121;96567.13;;;;
2020/01/06 02:18:36;;;;;;;21.6;13.15;;;;;;;-2.49;96.49121;96567.13;;;;
2020/01/06 02:19:37;;;;;;;21.6;13.15;;;;;;;-2.49;96.49121;96567.13;;;;
2020/01/06 02:20:37;;;;;;;21.6;13.15;;;;;;;-2.49;96.49121;96567.13;;;;
2020/01/06 02:21:42;;;;;;;18.9;12.45;;;;;;;-2.44;96.47363;96567.53;;;;
2020/01/06 02:22:43;;;;;;;18.9;12.45;;;;;;;-2.44;96.47363;96567.53;;;;
2020/01/06 02:23:45;;;;;;;18.9;12.45;;;;;;;-2.44;96.47363;96567.53;;;;
2020/01/06 02:24:54;;;;;;;18.9;12.45;;;;;;;-2.44;96.47363;96567.53;;;;
2020/01/06 02:25:56;;;;;;;18.9;12.45;;;;;;;-2.44;96.47363;96567.53;;;;
2020/01/06 02:26:59;;;;;;;18.9;12.45;;;;;;;-2.44;96.47363;96567.53;;;;
2020/01/06 02:27:59;;;;;;;18.9;12.45;;;;;;;-2.44;96.47363;96567.53;;;;
2020/01/06 02:29:00;;;;;;;18.9;12.45;;;;;;;-2.44;96.47363;96567.53;;;;
2020/01/06 02:30:00;;;;;;;18.9;12.45;;;;;;;-2.44;96.47363;96567.53;;;;
2020/01/06 02:31:01;;;;;;;18.9;12.45;;;;;;;-2.44;96.47363;96567.53;;;;
2020/01/06 02:32:02;;;;;;;19.1;11.3;;;;;;;-2.44;96.54492;96549.92;;;;
2020/01/06 02:33:02;;;;;;;19.1;11.3;;;;;;;-2.44;96.54492;96549.92;;;;
2020/01/06 02:34:03;;;;;;;19.1;11.3;;;;;;;-2.44;96.54492;96549.92;;;;
2020/01/06 02:35:03;;;;;;;19.1;11.3;;;;;;;-2.44;96.54492;96549.92;;;;
2020/01/06 02:36:04;;;;;;;19.1;11.3;;;;;;;-2.44;96.54492;96549.92;;;;
2020/01/06 02:37:33;;;;;;;19.1;11.3;;;;;;;-2.44;96.54492;96549.92;;;;
2020/01/06 02:38:33;;;;;;;19.1;11.3;;;;;;;-2.44;96.54492;96549.92;;;;
2020/01/06 02:39:34;;;;;;;19.1;11.3;;;;;;;-2.44;96.54492;96549.92;;;;
2020/01/06 02:40:34;;;;;;;19.1;11.3;;;;;;;-2.44;96.54492;96549.92;;;;
2020/01/06 02:41:35;;;;;;;19.1;11.3;;;;;;;-2.44;96.54492;96549.92;;;;
2020/01/06 02:42:35;;;;;;;16.3;10.55;;;;;;;-2.4;96.55566;96531.95;;;;
2020/01/06 02:43:36;;;;;;;16.3;10.55;;;;;;;-2.4;96.55566;96531.95;;;;
2020/01/06 02:44:36;;;;;;;16.3;10.55;;;;;;;-2.4;96.55566;96531.95;;;;
2020/01/06 02:45:36;;;;;;;16.3;10.55;;;;;;;-2.4;96.55566;96531.95;;;;
2020/01/06 02:46:37;;;;;;;16.3;10.55;;;;;;;-2.4;96.55566;96531.95;;;;
2020/01/06 02:47:37;;;;;;;16.3;10.55;;;;;;;-2.4;96.55566;96531.95;;;;
2020/01/06 02:48:38;;;;;;;16.3;10.55;;;;;;;-2.4;96.55566;96531.95;;;;
2020/01/06 02:49:38;;;;;;;16.3;10.55;;;;;;;-2.4;96.55566;96531.95;;;;
2020/01/06 02:50:39;;;;;;;16.3;10.55;;;;;;;-2.4;96.55566;96531.95;;;;
2020/01/06 02:51:39;;;;;;;16.3;10.55;;;;;;;-2.4;96.55566;96531.95;;;;
2020/01/06 02:52:40;;;;;;;16.7;11;;;;;;;-2.37;96.54199;96523.75;;;;
2020/01/06 02:53:41;;;;;;;16.7;11;;;;;;;-2.37;96.54199;96523.75;;;;
2020/01/06 02:54:41;;;;;;;16.7;11;;;;;;;-2.37;96.54199;96523.75;;;;
2020/01/06 02:55:41;;;;;;;16.7;11;;;;;;;-2.37;96.54199;96523.75;;;;
2020/01/06 02:56:42;;;;;;;16.7;11;;;;;;;-2.37;96.54199;96523.75;;;;
2020/01/06 02:57:42;;;;;;;16.7;11;;;;;;;-2.37;96.54199;96523.75;;;;
2020/01/06 02:58:43;;;;;;;16.7;11;;;;;;;-2.37;96.54199;96523.75;;;;
2020/01/06 02:59:43;;;;;;;16.7;11;;;;;;;-2.37;96.54199;96523.75;;;;
2020/01/06 03:00:44;;;;;;;16.7;11;;;;;;;-2.37;96.54199;96523.75;;;;
2020/01/06 03:01:44;;;;;;;16.7;11;;;;;;;-2.37;96.54199;96523.75;;;;
2020/01/06 03:02:47;;;;;;;16.7;11;;;;;;;-2.37;96.54199;96523.75;;;;
2020/01/06 03:03:48;;;;;;;15.25;10.1;;;;;;;-2.43;96.62207;96518.96;;;;
2020/01/06 03:04:48;;;;;;;15.25;10.1;;;;;;;-2.43;96.62207;96518.96;;;;
2020/01/06 03:05:48;;;;;;;15.25;10.1;;;;;;;-2.43;96.62207;96518.96;;;;
2020/01/06 03:06:49;;;;;;;15.25;10.1;;;;;;;-2.43;96.62207;96518.96;;;;
2020/01/06 03:07:50;;;;;;;15.25;10.1;;;;;;;-2.43;96.62207;96518.96;;;;
2020/01/06 03:08:50;;;;;;;15.25;10.1;;;;;;;-2.43;96.62207;96518.96;;;;
2020/01/06 03:09:51;;;;;;;15.25;10.1;;;;;;;-2.43;96.62207;96518.96;;;;
2020/01/06 03:10:51;;;;;;;15.25;10.1;;;;;;;-2.43;96.62207;96518.96;;;;
2020/01/06 03:11:52;;;;;;;15.25;10.1;;;;;;;-2.43;96.62207;96518.96;;;;
2020/01/06 03:12:52;;;;;;;15.25;10.1;;;;;;;-2.43;96.62207;96518.96;;;;
2020/01/06 03:13:53;;;;;;;14.1;9.150001;;;;;;;-2.54;96.79199;96511.1;;;;
2020/01/06 03:14:53;;;;;;;14.1;9.150001;;;;;;;-2.54;96.79199;96511.1;;;;
2020/01/06 03:15:54;;;;;;;14.1;9.150001;;;;;;;-2.54;96.79199;96511.1;;;;
2020/01/06 03:16:54;;;;;;;14.1;9.150001;;;;;;;-2.54;96.79199;96511.1;;;;
2020/01/06 03:17:55;;;;;;;14.1;9.150001;;;;;;;-2.54;96.79199;96511.1;;;;
2020/01/06 03:18:55;;;;;;;14.1;9.150001;;;;;;;-2.54;96.79199;96511.1;;;;
2020/01/06 03:19:56;;;;;;;14.1;9.150001;;;;;;;-2.54;96.79199;96511.1;;;;
2020/01/06 03:20:56;;;;;;;14.1;9.150001;;;;;;;-2.54;96.79199;96511.1;;;;
2020/01/06 03:21:57;;;;;;;14.1;9.150001;;;;;;;-2.54;96.79199;96511.1;;;;
2020/01/06 03:22:57;;;;;;;14.1;9.150001;;;;;;;-2.54;96.79199;96511.1;;;;
2020/01/06 03:23:58;;;;;;;14.1;9.150001;;;;;;;-2.54;96.79199;96511.1;;;;
2020/01/06 03:24:59;;;;;;;12.25;8.05;;;;;;;-2.6;96.75586;96506.78;;;;
2020/01/06 03:25:59;;;;;;;12.25;8.05;;;;;;;-2.6;96.75586;96506.78;;;;
2020/01/06 03:27:00;;;;;;;12.25;8.05;;;;;;;-2.6;96.75586;96506.78;;;;
2020/01/06 03:28:01;;;;;;;12.25;8.05;;;;;;;-2.6;96.75586;96506.78;;;;
2020/01/06 03:29:01;;;;;;;12.25;8.05;;;;;;;-2.6;96.75586;96506.78;;;;
2020/01/06 03:30:02;;;;;;;12.25;8.05;;;;;;;-2.6;96.75586;96506.78;;;;
2020/01/06 03:31:03;;;;;;;12.25;8.05;;;;;;;-2.6;96.75586;96506.78;;;;
2020/01/06 03:32:05;;;;;;;12.25;8.05;;;;;;;-2.6;96.75586;96506.78;;;;
2020/01/06 03:33:08;;;;;;;12.25;8.05;;;;;;;-2.6;96.75586;96506.78;;;;
2020/01/06 03:34:48;;;;;;;12.25;8.05;;;;;;;-2.6;96.75586;96506.78;;;;
2020/01/06 03:35:49;;;;;;;12.85;7.650001;;;;;;;-2.77;96.73047;96476.87;;;;
2020/01/06 03:36:50;;;;;;;12.85;7.650001;;;;;;;-2.77;96.73047;96476.87;;;;
2020/01/06 03:37:51;;;;;;;12.85;7.650001;;;;;;;-2.77;96.73047;96476.87;;;;
2020/01/06 03:38:53;;;;;;;12.85;7.650001;;;;;;;-2.77;96.73047;96476.87;;;;
2020/01/06 03:39:56;;;;;;;12.85;7.650001;;;;;;;-2.77;96.73047;96476.87;;;;
2020/01/06 03:40:56;;;;;;;12.85;7.650001;;;;;;;-2.77;96.73047;96476.87;;;;
2020/01/06 03:41:57;;;;;;;12.85;7.650001;;;;;;;-2.77;96.73047;96476.87;;;;
2020/01/06 03:43:01;;;;;;;12.85;7.650001;;;;;;;-2.77;96.73047;96476.87;;;;
2020/01/06 03:44:07;;;;;;;12.85;7.650001;;;;;;;-2.77;96.73047;96476.87;;;;
2020/01/06 03:45:20;;;;;;;12.85;7.650001;;;;;;;-2.77;96.73047;96476.87;;;;
2020/01/06 03:46:33;;;;;;;14;8.750002;;;;;;;-2.95;96.88477;96457.23;;;;
2020/01/06 03:47:39;;;;;;;14;8.750002;;;;;;;-2.95;96.88477;96457.23;;;;
2020/01/06 03:49:04;;;;;;;14;8.750002;;;;;;;-2.95;96.88477;96457.23;;;;
2020/01/06 03:50:05;;;;;;;14;8.750002;;;;;;;-2.95;96.88477;96457.23;;;;
2020/01/06 03:51:05;;;;;;;14;8.750002;;;;;;;-2.95;96.88477;96457.23;;;;
2020/01/06 03:52:17;;;;;;;14;8.750002;;;;;;;-2.95;96.88477;96457.23;;;;
2020/01/06 03:53:33;;;;;;;14;8.750002;;;;;;;-2.95;96.88477;96457.23;;;;
2020/01/06 03:55:08;;;;;;;14;8.750002;;;;;;;-2.95;96.88477;96457.23;;;;
2020/01/06 03:57:00;;;;;;;12.8;8.400001;;;;;;;-2.99;96.89453;96457.62;;;;
2020/01/06 03:58:02;;;;;;;12.8;8.400001;;;;;;;-2.99;96.89453;96457.62;;;;
2020/01/06 03:59:23;;;;;;;12.8;8.400001;;;;;;;-2.99;96.89453;96457.62;;;;
2020/01/06 04:03:26;;;;;;;12.8;8.400001;;;;;;;-2.99;96.89453;96457.62;;;;
2020/01/06 04:04:28;;;;;;;12.8;8.400001;;;;;;;-2.99;96.89453;96457.62;;;;
2020/01/06 04:05:45;;;;;;;12.8;8.400001;;;;;;;-2.99;96.89453;96457.62;;;;
2020/01/06 04:06:52;;;;;;;12.2;8.65;;;;;;;-3.06;96.72559;96440.1;;;;
2020/01/06 04:07:53;;;;;;;12.2;8.65;;;;;;;-3.06;96.72559;96440.1;;;;
2020/01/06 04:09:03;;;;;;;12.2;8.65;;;;;;;-3.06;96.72559;96440.1;;;;
2020/01/06 04:10:07;;;;;;;12.2;8.65;;;;;;;-3.06;96.72559;96440.1;;;;
2020/01/06 04:11:10;;;;;;;12.2;8.65;;;;;;;-3.06;96.72559;96440.1;;;;
2020/01/06 04:12:11;;;;;;;12.2;8.65;;;;;;;-3.06;96.72559;96440.1;;;;
2020/01/06 04:13:39;;;;;;;12.2;8.65;;;;;;;-3.06;96.72559;96440.1;;;;
2020/01/06 04:15:01;;;;;;;12.2;8.65;;;;;;;-3.06;96.72559;96440.1;;;;
2020/01/06 04:16:06;;;;;;;12.2;8.65;;;;;;;-3.06;96.72559;96440.1;;;;
2020/01/06 04:17:10;;;;;;;12.2;8.65;;;;;;;-3.06;96.72559;96440.1;;;;
2020/01/06 04:18:14;;;;;;;11.85;8.550001;;;;;;;-3.11;96.80469;96440.54;;;;
2020/01/06 04:19:17;;;;;;;11.85;8.550001;;;;;;;-3.11;96.80469;96440.54;;;;
2020/01/06 04:20:20;;;;;;;11.85;8.550001;;;;;;;-3.11;96.80469;96440.54;;;;
2020/01/06 04:21:25;;;;;;;11.85;8.550001;;;;;;;-3.11;96.80469;96440.54;;;;
2020/01/06 04:22:31;;;;;;;11.85;8.550001;;;;;;;-3.11;96.80469;96440.54;;;;
2020/01/06 04:23:33;;;;;;;11.85;8.550001;;;;;;;-3.11;96.80469;96440.54;;;;
2020/01/06 04:25:02;;;;;;;11.85;8.550001;;;;;;;-3.11;96.80469;96440.54;;;;
2020/01/06 04:26:06;;;;;;;11.85;8.550001;;;;;;;-3.11;96.80469;96440.54;;;;
2020/01/06 04:27:34;;;;;;;11.85;8.550001;;;;;;;-3.11;96.80469;96440.54;;;;
2020/01/06 04:29:12;;;;;;;14.1;8.900002;;;;;;;-3.22;96.88184;96430.03;;;;
2020/01/06 04:30:31;;;;;;;14.1;8.900002;;;;;;;-3.22;96.88184;96430.03;;;;
2020/01/06 04:31:47;;;;;;;14.1;8.900002;;;;;;;-3.22;96.88184;96430.03;;;;
2020/01/06 04:33:02;;;;;;;14.1;8.900002;;;;;;;-3.22;96.88184;96430.03;;;;
2020/01/06 04:34:39;;;;;;;14.1;8.900002;;;;;;;-3.22;96.88184;96430.03;;;;
2020/01/06 04:36:03;;;;;;;14.1;8.900002;;;;;;;-3.22;96.88184;96430.03;;;;
2020/01/06 04:37:53;;;;;;;14.1;8.900002;;;;;;;-3.22;96.88184;96430.03;;;;
2020/01/06 04:39:04;;;;;;;11.15;7.799999;;;;;;;-3.32;97.03613;96414.98;;;;
2020/01/06 04:40:14;;;;;;;11.15;7.799999;;;;;;;-3.32;97.03613;96414.98;;;;
2020/01/06 04:41:20;;;;;;;11.15;7.799999;;;;;;;-3.32;97.03613;96414.98;;;;
2020/01/06 04:42:23;;;;;;;11.15;7.799999;;;;;;;-3.32;97.03613;96414.98;;;;
2020/01/06 04:43:24;;;;;;;11.15;7.799999;;;;;;;-3.32;97.03613;96414.98;;;;
2020/01/06 04:44:25;;;;;;;11.15;7.799999;;;;;;;-3.32;97.03613;96414.98;;;;
2020/01/06 04:45:25;;;;;;;11.15;7.799999;;;;;;;-3.32;97.03613;96414.98;;;;
2020/01/06 04:46:30;;;;;;;11.15;7.799999;;;;;;;-3.32;97.03613;96414.98;;;;
2020/01/06 04:47:31;;;;;;;11.15;7.799999;;;;;;;-3.32;97.03613;96414.98;;;;
2020/01/06 04:49:37;;;;;;;13.85;8.15;;;;;;;-3.33;96.95117;96415.54;;;;
2020/01/06 04:51:01;;;;;;;13.85;8.15;;;;;;;-3.33;96.95117;96415.54;;;;
2020/01/06 04:52:02;;;;;;;13.85;8.15;;;;;;;-3.33;96.95117;96415.54;;;;
2020/01/06 04:53:02;;;;;;;13.85;8.15;;;;;;;-3.33;96.95117;96415.54;;;;
2020/01/06 04:54:03;;;;;;;13.85;8.15;;;;;;;-3.33;96.95117;96415.54;;;;
2020/01/06 04:55:05;;;;;;;13.85;8.15;;;;;;;-3.33;96.95117;96415.54;;;;
2020/01/06 04:56:07;;;;;;;13.85;8.15;;;;;;;-3.33;96.95117;96415.54;;;;
2020/01/06 04:57:42;;;;;;;13.85;8.15;;;;;;;-3.33;96.95117;96415.54;;;;
2020/01/06 05:02:06;;;;;;;14.15;8.800001;;;;;;;-3.38;96.88867;96407.97;;;;
2020/01/06 05:03:15;;;;;;;14.15;8.800001;;;;;;;-3.38;96.88867;96407.97;;;;
2020/01/06 05:08:31;;;;;;;14.15;8.800001;;;;;;;-3.38;96.88867;96407.97;;;;
2020/01/06 05:09:31;;;;;;;14.15;8.800001;;;;;;;-3.38;96.88867;96407.97;;;;
2020/01/06 05:10:32;;;;;;;15.1;8.900001;;;;;;;-3.35;96.96777;96411.75;;;;
2020/01/06 05:11:32;;;;;;;15.1;8.900001;;;;;;;-3.35;96.96777;96411.75;;;;
2020/01/06 05:12:33;;;;;;;15.1;8.900001;;;;;;;-3.35;96.96777;96411.75;;;;
2020/01/06 05:13:34;;;;;;;15.1;8.900001;;;;;;;-3.35;96.96777;96411.75;;;;
2020/01/06 05:14:35;;;;;;;15.1;8.900001;;;;;;;-3.35;96.96777;96411.75;;;;
2020/01/06 05:15:35;;;;;;;15.1;8.900001;;;;;;;-3.35;96.96777;96411.75;;;;
2020/01/06 05:16:36;;;;;;;15.1;8.900001;;;;;;;-3.35;96.96777;96411.75;;;;
2020/01/06 05:17:37;;;;;;;15.1;8.900001;;;;;;;-3.35;96.96777;96411.75;;;;
2020/01/06 05:18:37;;;;;;;15.1;8.900001;;;;;;;-3.35;96.96777;96411.75;;;;
2020/01/06 05:19:38;;;;;;;15.1;8.900001;;;;;;;-3.35;96.96777;96411.75;;;;
2020/01/06 05:20:39;;;;;;;15.1;8.900001;;;;;;;-3.35;96.96777;96411.75;;;;
2020/01/06 05:21:39;;;;;;;12.75;8.25;;;;;;;-3.33;96.88965;96403.66;;;;
2020/01/06 05:22:39;;;;;;;12.75;8.25;;;;;;;-3.33;96.88965;96403.66;;;;
2020/01/06 05:23:40;;;;;;;12.75;8.25;;;;;;;-3.33;96.88965;96403.66;;;;
2020/01/06 05:24:41;;;;;;;12.75;8.25;;;;;;;-3.33;96.88965;96403.66;;;;
2020/01/06 05:25:41;;;;;;;12.75;8.25;;;;;;;-3.33;96.88965;96403.66;;;;
2020/01/06 05:26:42;;;;;;;12.75;8.25;;;;;;;-3.33;96.88965;96403.66;;;;
2020/01/06 05:27:42;;;;;;;12.75;8.25;;;;;;;-3.33;96.88965;96403.66;;;;
2020/01/06 05:28:43;;;;;;;12.75;8.25;;;;;;;-3.33;96.88965;96403.66;;;;
2020/01/06 05:29:44;;;;;;;12.75;8.25;;;;;;;-3.33;96.88965;96403.66;;;;
2020/01/06 05:30:45;;;;;;;12.75;8.25;;;;;;;-3.33;96.88965;96403.66;;;;
2020/01/06 05:31:45;;;;;;;14.65;8.45;;;;;;;-3.29;96.7334;96410.35;;;;
2020/01/06 05:32:46;;;;;;;14.65;8.45;;;;;;;-3.29;96.7334;96410.35;;;;
2020/01/06 05:33:47;;;;;;;14.65;8.45;;;;;;;-3.29;96.7334;96410.35;;;;
2020/01/06 05:34:48;;;;;;;14.65;8.45;;;;;;;-3.29;96.7334;96410.35;;;;
2020/01/06 05:35:49;;;;;;;14.65;8.45;;;;;;;-3.29;96.7334;96410.35;;;;
2020/01/06 05:36:50;;;;;;;14.65;8.45;;;;;;;-3.29;96.7334;96410.35;;;;
2020/01/06 05:37:51;;;;;;;14.65;8.45;;;;;;;-3.29;96.7334;96410.35;;;;
2020/01/06 05:38:51;;;;;;;14.65;8.45;;;;;;;-3.29;96.7334;96410.35;;;;
2020/01/06 05:39:52;;;;;;;14.65;8.45;;;;;;;-3.29;96.7334;96410.35;;;;
2020/01/06 05:40:53;;;;;;;14.65;8.45;;;;;;;-3.29;96.7334;96410.35;;;;
2020/01/06 05:42:01;;;;;;;14.65;8.45;;;;;;;-3.29;96.7334;96410.35;;;;
2020/01/06 05:43:02;;;;;;;13.75;8.7;;;;;;;-3.28;96.7666;96405.02;;;;
2020/01/06 05:44:05;;;;;;;13.75;8.7;;;;;;;-3.28;96.7666;96405.02;;;;
2020/01/06 05:45:07;;;;;;;13.75;8.7;;;;;;;-3.28;96.7666;96405.02;;;;
2020/01/06 05:46:07;;;;;;;13.75;8.7;;;;;;;-3.28;96.7666;96405.02;;;;
2020/01/06 05:47:08;;;;;;;13.75;8.7;;;;;;;-3.28;96.7666;96405.02;;;;
2020/01/06 05:48:08;;;;;;;13.75;8.7;;;;;;;-3.28;96.7666;96405.02;;;;
2020/01/06 05:49:09;;;;;;;13.75;8.7;;;;;;;-3.28;96.7666;96405.02;;;;
2020/01/06 05:50:09;;;;;;;13.75;8.7;;;;;;;-3.28;96.7666;96405.02;;;;
2020/01/06 05:51:10;;;;;;;13.75;8.7;;;;;;;-3.28;96.7666;96405.02;;;;
2020/01/06 05:52:10;;;;;;;13.75;8.7;;;;;;;-3.28;96.7666;96405.02;;;;
2020/01/06 05:53:11;;;;;;;13.55;7.999999;;;;;;;-3.3;96.80078;96421.45;;;;
2020/01/06 05:54:33;;;;;;;13.55;7.999999;;;;;;;-3.3;96.80078;96421.45;;;;
2020/01/06 05:55:34;;;;;;;13.55;7.999999;;;;;;;-3.3;96.80078;96421.45;;;;
2020/01/06 05:56:45;;;;;;;13.55;7.999999;;;;;;;-3.3;96.80078;96421.45;;;;
2020/01/06 05:57:53;;;;;;;13.55;7.999999;;;;;;;-3.3;96.80078;96421.45;;;;
2020/01/06 05:58:56;;;;;;;13.55;7.999999;;;;;;;-3.3;96.80078;96421.45;;;;
2020/01/06 05:59:57;;;;;;;13.55;7.999999;;;;;;;-3.3;96.80078;96421.45;;;;
2020/01/06 06:00:58;;;;;;;13.55;7.999999;;;;;;;-3.3;96.80078;96421.45;;;;
2020/01/06 06:01:59;;;;;;;13.55;7.999999;;;;;;;-3.3;96.80078;96421.45;;;;
2020/01/06 06:03:00;;;;;;;13.55;7.999999;;;;;;;-3.3;96.80078;96421.45;;;;
2020/01/06 06:04:01;;;;;;;12.45;7.700001;;;;;;;-3.42;96.78516;96421.13;;;;
2020/01/06 06:05:02;;;;;;;12.45;7.700001;;;;;;;-3.42;96.78516;96421.13;;;;